createdAt,value
2022-09-02T00:01:57.337Z,18.50
2022-09-02T00:04:27.848Z,19.75
2022-09-02T00:06:57.189Z,19.00
2022-09-02T00:09:27.149Z,21.75
2022-09-02T00:11:57.236Z,21.75
2022-09-02T00:14:35.582Z,20.25
2022-09-02T00:17:05.540Z,21.50
2022-09-02T00:19:35.034Z,18.50
2022-09-02T00:22:05.182Z,21.25
2022-09-02T00:24:34.692Z,22.25
2022-09-02T00:27:05.334Z,20.75
2022-09-02T00:29:34.671Z,21.00
2022-09-02T00:32:04.158Z,23.25
2022-09-02T00:34:34.196Z,20.75
2022-09-02T00:37:03.526Z,23.50
2022-09-02T00:39:32.816Z,22.25
2022-09-02T00:42:02.754Z,23.25
2022-09-02T00:44:32.040Z,22.50
2022-09-02T00:47:01.685Z,23.25
2022-09-02T00:49:33.332Z,22.00
2022-09-02T00:52:06.699Z,23.25
2022-09-02T00:54:48.917Z,23.00
2022-09-02T00:57:20.900Z,23.25
2022-09-02T00:59:59.578Z,25.00
2022-09-02T01:02:29.975Z,22.75
2022-09-02T01:05:00.522Z,23.75
2022-09-02T01:07:31.921Z,16.75
2022-09-02T01:10:03.385Z,27.50
2022-09-02T01:12:33.017Z,21.75
2022-09-02T01:15:02.544Z,22.25
2022-09-02T01:17:35.404Z,23.00
2022-09-02T01:20:07.071Z,22.25
2022-09-02T01:22:36.338Z,25.25
2022-09-02T01:25:10.072Z,25.75
2022-09-02T01:27:39.830Z,23.50
2022-09-02T01:30:10.746Z,21.00
2022-09-02T01:32:40.021Z,25.25
2022-09-02T01:35:09.929Z,28.25
2022-09-02T01:37:41.742Z,22.25
2022-09-02T01:40:24.837Z,21.25
2022-09-02T01:43:00.013Z,27.50
2022-09-02T01:45:31.163Z,20.00
2022-09-02T01:48:00.510Z,24.00
2022-09-02T01:50:30.233Z,19.75
2022-09-02T01:53:03.086Z,21.00
2022-09-02T01:55:34.798Z,22.25
2022-09-02T01:58:04.272Z,20.75
2022-09-02T02:00:33.633Z,21.50
2022-09-02T02:03:03.949Z,21.50
2022-09-02T02:05:33.743Z,21.00
2022-09-02T02:08:04.582Z,24.00
2022-09-02T02:10:34.048Z,24.50
2022-09-02T02:13:03.865Z,21.50
2022-09-02T02:15:35.360Z,19.00
2022-09-02T02:18:04.827Z,17.50
2022-09-02T02:20:34.562Z,20.75
2022-09-02T02:23:04.932Z,19.00
2022-09-02T02:25:34.277Z,19.25
2022-09-02T02:28:03.736Z,21.25
2022-09-02T02:30:34.991Z,20.00
2022-09-02T02:33:05.396Z,23.25
2022-09-02T02:35:34.801Z,21.00
2022-09-02T02:38:04.134Z,21.75
2022-09-02T02:40:34.490Z,24.00
2022-09-02T02:43:05.128Z,20.00
2022-09-02T02:45:34.522Z,21.50
2022-09-02T02:48:04.328Z,23.50
2022-09-02T02:50:35.145Z,21.00
2022-09-02T02:53:04.987Z,24.75
2022-09-02T02:55:53.668Z,20.00
2022-09-02T02:58:27.162Z,23.00
2022-09-02T03:00:57.770Z,21.25
2022-09-02T03:03:27.532Z,23.75
2022-09-02T03:05:58.304Z,24.25
2022-09-02T03:08:29.849Z,22.75
2022-09-02T03:10:59.446Z,25.25
2022-09-02T03:13:32.048Z,24.50
2022-09-02T03:16:03.436Z,21.00
2022-09-02T03:18:34.209Z,22.00
2022-09-02T03:21:03.698Z,23.75
2022-09-02T03:23:33.032Z,25.50
2022-09-02T03:26:02.361Z,22.25
2022-09-02T03:28:36.292Z,22.00
2022-09-02T03:31:07.805Z,24.00
2022-09-02T03:33:37.517Z,24.00
2022-09-02T03:36:07.389Z,20.50
2022-09-02T03:38:38.034Z,20.25
2022-09-02T03:41:07.971Z,21.75
2022-09-02T03:43:37.352Z,20.00
2022-09-02T03:46:06.800Z,23.50
2022-09-02T03:48:36.184Z,22.25
2022-09-02T03:51:06.871Z,24.00
2022-09-02T03:53:36.963Z,22.50
2022-09-02T03:56:10.348Z,21.50
2022-09-02T03:58:40.859Z,25.25
2022-09-02T04:01:15.225Z,20.00
2022-09-02T04:03:46.201Z,23.50
2022-09-02T04:06:16.621Z,23.75
2022-09-02T04:08:47.852Z,19.25
2022-09-02T04:11:19.204Z,21.50
2022-09-02T04:13:53.319Z,21.00
2022-09-02T04:16:30.126Z,23.50
2022-09-02T04:19:06.836Z,23.00
2022-09-02T04:21:37.697Z,22.25
2022-09-02T04:24:10.685Z,20.75
2022-09-02T04:26:45.215Z,24.50
2022-09-02T04:29:19.625Z,26.75
2022-09-02T04:31:52.091Z,25.25
2022-09-02T04:34:22.105Z,25.25
2022-09-02T04:36:54.372Z,29.25
2022-09-02T04:39:24.644Z,23.75
2022-09-02T04:41:55.210Z,26.25
2022-09-02T04:44:27.671Z,24.75
2022-09-02T04:46:57.271Z,25.50
2022-09-02T04:49:28.068Z,24.75
2022-09-02T04:51:58.001Z,24.50
2022-09-02T04:54:28.803Z,24.50
2022-09-02T04:57:02.067Z,24.00
2022-09-02T04:59:32.148Z,26.75
2022-09-02T05:02:06.912Z,26.50
2022-09-02T05:04:38.833Z,26.00
2022-09-02T05:07:15.431Z,25.25
2022-09-02T05:09:50.662Z,24.00
2022-09-02T05:12:20.457Z,28.25
2022-09-02T05:14:54.750Z,22.50
2022-09-02T05:17:25.587Z,22.50
2022-09-02T05:19:56.858Z,27.00
2022-09-02T05:22:27.490Z,25.00
2022-09-02T05:24:59.765Z,25.50
2022-09-02T05:27:34.460Z,27.25
2022-09-02T05:30:04.994Z,27.50
2022-09-02T05:32:38.128Z,25.50
2022-09-02T05:35:09.062Z,30.25
2022-09-02T05:37:39.702Z,24.00
2022-09-02T05:40:11.452Z,25.00
2022-09-02T05:42:47.050Z,24.25
2022-09-02T05:45:19.409Z,25.25
2022-09-02T05:47:49.877Z,23.25
2022-09-02T05:50:19.760Z,25.50
2022-09-02T05:52:54.576Z,24.75
2022-09-02T05:55:25.634Z,28.25
2022-09-02T05:57:55.079Z,26.50
2022-09-02T06:00:25.156Z,27.00
2022-09-02T06:03:01.274Z,22.75
2022-09-02T06:05:37.787Z,24.25
2022-09-02T06:08:26.294Z,23.75
2022-09-02T06:10:55.704Z,23.75
2022-09-02T06:13:28.291Z,27.00
2022-09-02T06:15:59.179Z,25.50
2022-09-02T06:18:32.928Z,22.25
2022-09-02T06:21:05.319Z,25.25
2022-09-02T06:23:40.709Z,26.25
2022-09-02T06:26:14.991Z,21.25
2022-09-02T06:28:45.409Z,19.50
2022-09-02T06:31:18.591Z,26.75
2022-09-02T06:33:49.796Z,23.00
2022-09-02T06:36:20.890Z,25.00
2022-09-02T06:38:51.765Z,23.50
2022-09-02T06:41:25.670Z,29.25
2022-09-02T06:44:00.093Z,25.25
2022-09-02T06:46:31.862Z,25.75
2022-09-02T06:49:04.331Z,21.50
2022-09-02T06:51:39.094Z,25.75
2022-09-02T06:54:10.403Z,27.50
2022-09-02T06:56:49.284Z,24.25
2022-09-02T06:59:23.926Z,22.25
2022-09-02T07:01:56.645Z,22.75
2022-09-02T07:04:45.220Z,20.25
2022-09-02T07:07:19.310Z,21.75
2022-09-02T07:09:55.197Z,23.75
2022-09-02T07:12:28.475Z,27.25
2022-09-02T07:15:03.537Z,23.00
2022-09-02T07:17:38.321Z,24.25
2022-09-02T07:20:12.367Z,25.00
2022-09-02T07:25:23.031Z,25.75
2022-09-02T07:27:53.799Z,22.25
2022-09-02T07:30:23.423Z,21.75
2022-09-02T07:33:15.694Z,23.00
2022-09-02T07:35:47.915Z,22.75
2022-09-02T07:38:20.776Z,23.00
2022-09-02T07:40:56.668Z,26.25
2022-09-02T07:43:33.562Z,24.50
2022-09-02T07:46:04.340Z,22.50
2022-09-02T07:48:35.569Z,21.25
2022-09-02T07:51:06.615Z,22.75
2022-09-02T07:53:39.251Z,23.00
2022-09-02T07:56:09.312Z,20.25
2022-09-02T07:58:40.119Z,20.00
2022-09-02T08:01:10.920Z,19.25
2022-09-02T08:03:43.089Z,19.50
2022-09-02T08:06:15.089Z,21.00
2022-09-02T08:08:45.031Z,22.25
2022-09-02T08:11:14.538Z,20.25
2022-09-02T08:13:43.868Z,17.75
2022-09-02T08:16:13.917Z,19.50
2022-09-02T08:18:44.580Z,14.50
2022-09-02T08:21:15.057Z,15.50
2022-09-02T08:23:44.738Z,18.50
2022-09-02T08:26:14.238Z,19.00
2022-09-02T08:28:43.493Z,19.75
2022-09-02T08:31:13.957Z,18.25
2022-09-02T08:33:43.806Z,18.50
2022-09-02T08:36:13.242Z,12.75
2022-09-02T08:38:43.850Z,19.00
2022-09-02T08:41:26.585Z,17.75
2022-09-02T08:43:59.025Z,15.75
2022-09-02T08:46:30.016Z,16.75
2022-09-02T08:49:05.904Z,18.50
2022-09-02T08:51:59.449Z,17.75
2022-09-02T08:54:30.493Z,18.00
2022-09-02T08:57:00.286Z,13.75
2022-09-02T08:59:32.676Z,19.00
2022-09-02T09:02:10.946Z,15.25
2022-09-02T09:04:46.378Z,13.75
2022-09-02T09:07:18.430Z,19.25
2022-09-02T09:09:47.839Z,16.75
2022-09-02T09:12:25.198Z,18.75
2022-09-02T09:15:00.711Z,15.50
2022-09-02T09:17:53.795Z,18.00
2022-09-02T09:20:26.097Z,16.50
2022-09-02T09:23:00.631Z,16.00
2022-09-02T09:25:33.772Z,18.75
2022-09-02T09:28:06.383Z,18.25
2022-09-02T09:30:36.019Z,16.00
2022-09-02T09:33:06.142Z,19.25
2022-09-02T09:35:55.459Z,17.50
2022-09-02T09:38:33.523Z,17.00
2022-09-02T09:41:23.500Z,19.50
2022-09-02T09:43:53.689Z,16.75
2022-09-02T09:46:32.267Z,14.50
2022-09-02T09:49:03.011Z,20.25
2022-09-02T09:51:40.140Z,19.75
2022-09-02T09:54:22.607Z,18.25
2022-09-02T09:56:52.560Z,20.75
2022-09-02T09:59:39.730Z,16.25
2022-09-02T10:02:20.102Z,18.50
2022-09-02T10:04:50.180Z,18.75
2022-09-02T10:07:35.916Z,18.00
2022-09-02T10:10:17.518Z,17.75
2022-09-02T10:12:47.765Z,17.75
2022-09-02T10:15:20.566Z,19.50
2022-09-02T10:17:58.403Z,31.75
2022-09-02T10:21:13.839Z,27.25
2022-09-02T10:23:44.675Z,24.50
2022-09-02T10:26:18.150Z,27.50
2022-09-02T10:29:04.153Z,32.50
2022-09-02T10:31:33.843Z,34.00
2022-09-02T10:34:12.149Z,35.50
2022-09-02T10:36:56.428Z,28.50
2022-09-02T10:39:51.695Z,29.75
2022-09-02T10:42:27.818Z,29.00
2022-09-02T10:45:29.483Z,30.75
2022-09-02T10:47:59.268Z,29.00
2022-09-02T10:50:51.774Z,27.00
2022-09-02T10:53:40.285Z,21.50
2022-09-02T10:56:15.717Z,29.25
2022-09-02T10:58:52.646Z,21.25
2022-09-02T11:01:24.841Z,21.25
2022-09-02T11:04:07.420Z,21.75
2022-09-02T11:07:01.976Z,22.00
2022-09-02T11:09:38.218Z,22.00
2022-09-02T11:12:19.378Z,21.25
2022-09-02T11:15:18.354Z,21.00
2022-09-02T11:17:54.354Z,20.50
2022-09-02T11:20:50.441Z,25.00
2022-09-02T11:23:38.576Z,18.25
2022-09-02T11:26:39.954Z,17.00
2022-09-02T11:29:22.169Z,17.50
2022-09-02T11:32:13.408Z,18.75
2022-09-02T11:34:49.044Z,17.75
2022-09-02T11:37:28.861Z,17.25
2022-09-02T11:40:33.089Z,19.50
2022-09-02T11:43:14.924Z,17.00
2022-09-02T11:46:03.612Z,19.75
2022-09-02T11:48:42.444Z,18.00
2022-09-02T11:51:40.131Z,19.25
2022-09-02T11:54:12.187Z,21.00
2022-09-02T11:56:50.790Z,18.75
2022-09-02T11:59:24.942Z,19.75
2022-09-02T12:01:57.479Z,18.75
2022-09-02T12:07:21.051Z,26.25
2022-09-02T12:09:57.172Z,28.50
2022-09-02T12:12:38.585Z,27.25
2022-09-02T12:15:09.480Z,25.75
2022-09-02T12:17:51.327Z,26.50
2022-09-02T12:20:39.756Z,24.25
2022-09-02T12:23:10.389Z,18.75
2022-09-02T12:25:47.545Z,22.50
2022-09-02T12:28:31.691Z,20.50
2022-09-02T12:31:09.099Z,19.25
2022-09-02T12:33:40.180Z,17.00
2022-09-02T12:36:14.519Z,19.00
2022-09-02T12:38:44.914Z,18.50
2022-09-02T12:41:25.516Z,20.25
2022-09-02T12:43:55.398Z,23.50
2022-09-02T12:46:25.511Z,18.00
2022-09-02T12:49:14.724Z,20.00
2022-09-02T12:51:56.396Z,22.25
2022-09-02T12:54:58.343Z,19.50
2022-09-02T12:57:40.024Z,17.50
2022-09-02T13:00:09.989Z,20.00
2022-09-02T13:02:39.423Z,17.75
2022-09-02T13:05:12.655Z,17.50
2022-09-02T13:07:51.441Z,18.00
2022-09-02T13:10:31.175Z,19.25
2022-09-02T13:13:03.431Z,19.25
2022-09-02T13:15:33.228Z,15.75
2022-09-02T13:18:02.972Z,20.50
2022-09-02T13:20:35.423Z,17.00
2022-09-02T13:23:08.440Z,16.25
2022-09-02T13:25:57.541Z,16.50
2022-09-02T13:28:45.697Z,20.50
2022-09-02T13:31:25.097Z,15.50
2022-09-02T13:34:05.415Z,18.50
2022-09-02T13:36:43.185Z,14.25
2022-09-02T13:39:14.812Z,19.25
2022-09-02T13:41:45.065Z,19.25
2022-09-02T13:44:26.702Z,19.25
2022-09-02T13:46:59.372Z,17.00
2022-09-02T13:49:37.338Z,19.75
2022-09-02T13:52:09.661Z,16.00
2022-09-02T13:54:40.163Z,19.75
2022-09-02T13:57:12.358Z,17.25
2022-09-02T13:59:53.051Z,18.00
2022-09-02T14:02:28.553Z,16.00
2022-09-02T14:05:18.462Z,17.25
2022-09-02T14:07:55.988Z,15.25
2022-09-02T14:10:29.009Z,20.00
2022-09-02T14:13:01.446Z,17.00
2022-09-02T14:15:32.932Z,17.50
2022-09-02T14:18:18.629Z,16.00
2022-09-02T14:20:55.659Z,19.00
2022-09-02T14:23:26.602Z,14.50
2022-09-02T14:25:58.664Z,14.75
2022-09-02T14:28:30.968Z,16.50
2022-09-02T14:31:02.741Z,15.50
2022-09-02T14:33:43.917Z,16.25
2022-09-02T14:36:21.229Z,16.00
2022-09-02T14:38:53.874Z,17.75
2022-09-02T14:41:33.102Z,16.75
2022-09-02T14:44:12.980Z,17.25
2022-09-02T14:46:48.646Z,18.00
2022-09-02T14:49:25.218Z,16.75
2022-09-02T14:51:58.629Z,18.00
2022-09-02T14:54:37.887Z,16.00
2022-09-02T14:57:33.086Z,14.50
2022-09-02T15:00:04.444Z,15.00
2022-09-02T15:02:36.180Z,15.25
2022-09-02T15:05:08.874Z,16.00
2022-09-02T15:07:38.816Z,18.50
2022-09-02T15:10:14.264Z,18.50
2022-09-02T15:12:52.411Z,18.25
2022-09-02T15:15:22.439Z,13.50
2022-09-02T15:17:52.147Z,14.50
2022-09-02T15:20:23.574Z,20.00
2022-09-02T15:22:55.016Z,20.50
2022-09-02T15:25:26.032Z,17.75
2022-09-02T15:27:56.537Z,18.25
2022-09-02T15:30:27.384Z,15.00
2022-09-02T15:32:57.802Z,17.75
2022-09-02T15:35:29.056Z,15.75
2022-09-02T15:37:59.826Z,18.25
2022-09-02T15:40:30.492Z,17.50
2022-09-02T15:43:04.586Z,20.00
2022-09-02T15:45:34.901Z,18.75
2022-09-02T15:48:08.755Z,16.75
2022-09-02T15:50:39.026Z,18.75
2022-09-02T15:53:09.728Z,19.50
2022-09-02T15:55:39.649Z,19.75
2022-09-02T15:58:09.259Z,18.00
2022-09-02T16:00:38.939Z,19.25
2022-09-02T16:03:08.682Z,17.00
2022-09-02T16:05:38.928Z,16.75
2022-09-02T16:08:09.591Z,20.25
2022-09-02T16:10:39.737Z,20.75
2022-09-02T16:13:09.800Z,18.50
2022-09-02T16:15:40.286Z,17.75
2022-09-02T16:18:10.205Z,16.00
2022-09-02T16:20:40.157Z,16.50
2022-09-02T16:23:09.804Z,17.00
2022-09-02T16:25:39.588Z,17.75
2022-09-02T16:28:09.199Z,21.00
2022-09-02T16:30:40.485Z,20.75
2022-09-02T16:33:14.767Z,18.25
2022-09-02T16:35:45.033Z,18.25
2022-09-02T16:38:14.912Z,16.75
2022-09-02T16:40:52.120Z,14.25
2022-09-02T16:43:25.652Z,18.00
2022-09-02T16:45:57.129Z,17.50
2022-09-02T16:48:27.523Z,17.75
2022-09-02T16:50:57.132Z,19.25
2022-09-02T16:53:26.964Z,17.75
2022-09-02T16:55:57.661Z,16.75
2022-09-02T16:58:27.376Z,17.00
2022-09-02T17:00:57.182Z,19.00
2022-09-02T17:03:27.017Z,17.25
2022-09-02T17:05:56.818Z,18.50
2022-09-02T17:08:26.485Z,17.00
2022-09-02T17:11:12.042Z,17.75
2022-09-02T17:13:41.876Z,17.50
2022-09-02T17:16:11.420Z,17.75
2022-09-02T17:18:40.917Z,19.25
2022-09-02T17:21:23.459Z,17.75
2022-09-02T17:23:53.760Z,18.25
2022-09-02T17:26:24.262Z,17.75
2022-09-02T17:28:56.110Z,17.75
2022-09-02T17:31:27.089Z,18.50
2022-09-02T17:33:57.775Z,16.00
2022-09-02T17:36:29.096Z,17.50
2022-09-02T17:38:59.322Z,16.00
2022-09-02T17:41:47.312Z,16.75
2022-09-02T17:44:17.648Z,19.00
2022-09-02T17:46:47.358Z,17.75
2022-09-02T17:49:17.699Z,18.75
2022-09-02T17:51:47.898Z,20.50
2022-09-02T17:54:17.603Z,19.00
2022-09-02T17:56:50.240Z,19.75
2022-09-02T17:59:19.628Z,19.75
2022-09-02T18:01:54.388Z,23.50
2022-09-02T18:04:46.272Z,19.25
2022-09-02T18:07:34.319Z,17.00
2022-09-02T18:10:04.364Z,19.00
2022-09-02T18:12:35.148Z,20.00
2022-09-02T18:15:07.630Z,18.25
2022-09-02T18:17:38.283Z,17.75
2022-09-02T18:20:09.443Z,19.00
2022-09-02T18:22:44.832Z,17.75
2022-09-02T18:25:25.504Z,18.50
2022-09-02T18:28:13.704Z,21.00
2022-09-02T18:30:44.055Z,18.00
2022-09-02T18:33:39.277Z,23.50
2022-09-02T18:36:08.647Z,22.50
2022-09-02T18:38:56.295Z,20.50
2022-09-02T18:41:39.699Z,19.00
2022-09-02T18:44:10.159Z,23.25
2022-09-02T18:47:06.493Z,20.50
2022-09-02T18:49:38.447Z,18.00
2022-09-02T18:52:11.002Z,20.00
2022-09-02T18:54:48.900Z,18.75
2022-09-02T18:57:18.383Z,17.50
2022-09-02T18:59:52.816Z,20.00
2022-09-02T19:02:25.588Z,19.25
2022-09-02T19:04:55.623Z,19.00
2022-09-02T19:07:42.930Z,22.25
2022-09-02T19:10:12.669Z,18.75
2022-09-02T19:12:42.334Z,19.00
2022-09-02T19:15:13.247Z,16.75
2022-09-02T19:17:43.213Z,21.25
2022-09-02T19:20:12.654Z,16.75
2022-09-02T19:22:46.757Z,17.25
2022-09-02T19:25:18.615Z,18.75
2022-09-02T19:27:50.092Z,17.00
2022-09-02T19:30:22.438Z,20.50
2022-09-02T19:32:53.839Z,18.25
2022-09-02T19:35:25.010Z,21.00
2022-09-02T19:37:54.940Z,20.75
2022-09-02T19:40:25.348Z,22.00
2022-09-02T19:42:55.260Z,19.00
2022-09-02T19:45:24.901Z,20.50
2022-09-02T19:48:10.426Z,20.00
2022-09-02T19:50:44.901Z,19.25
2022-09-02T19:53:26.887Z,21.75
2022-09-02T19:55:58.072Z,20.50
2022-09-02T19:58:28.044Z,16.25
2022-09-02T20:00:58.253Z,20.00
2022-09-02T20:03:27.690Z,20.00
2022-09-02T20:05:57.064Z,22.00
2022-09-02T20:08:30.373Z,22.00
2022-09-02T20:11:01.692Z,21.25
2022-09-02T20:13:31.899Z,21.50
2022-09-02T20:16:01.447Z,20.25
2022-09-02T20:18:31.012Z,21.75
2022-09-02T20:21:01.997Z,23.75
2022-09-02T20:23:34.440Z,20.75
2022-09-02T20:26:07.371Z,24.00
2022-09-02T20:28:49.984Z,22.00
2022-09-02T20:31:26.670Z,23.00
2022-09-02T20:34:17.373Z,19.00
2022-09-02T20:37:05.406Z,23.00
2022-09-02T20:39:34.874Z,19.25
2022-09-02T20:42:10.147Z,21.25
2022-09-02T20:44:42.368Z,23.50
2022-09-02T20:47:17.732Z,20.75
2022-09-02T20:49:59.738Z,22.50
2022-09-02T20:52:37.971Z,23.00
2022-09-02T20:55:25.942Z,21.00
2022-09-02T20:58:24.824Z,22.25
2022-09-02T21:00:54.844Z,25.50
2022-09-02T21:03:27.220Z,24.25
2022-09-02T21:06:03.519Z,21.75
2022-09-02T21:08:58.970Z,25.00
2022-09-02T21:11:33.521Z,23.00
2022-09-02T21:14:08.991Z,21.00
2022-09-02T21:16:40.834Z,24.25
2022-09-02T21:19:28.412Z,22.50
2022-09-02T21:22:03.213Z,20.50
2022-09-02T21:24:36.127Z,23.50
2022-09-02T21:27:08.507Z,21.75
2022-09-02T21:29:59.034Z,23.25
2022-09-02T21:32:46.516Z,22.75
2022-09-02T21:35:15.829Z,23.50
2022-09-02T21:37:46.357Z,23.00
2022-09-02T21:40:20.234Z,23.00
2022-09-02T21:43:08.005Z,20.50
2022-09-02T21:45:46.243Z,23.75
2022-09-02T21:48:36.455Z,25.75
2022-09-02T21:51:13.231Z,22.00
2022-09-02T21:53:49.427Z,24.00
2022-09-02T21:56:42.143Z,25.50
2022-09-02T21:59:12.306Z,22.75
2022-09-02T22:01:48.541Z,22.00
2022-09-02T22:04:36.535Z,21.50
2022-09-02T22:07:26.454Z,26.50
2022-09-02T22:10:04.657Z,24.00
2022-09-02T22:12:40.964Z,21.75
2022-09-02T22:15:20.182Z,22.00
2022-09-02T22:17:56.731Z,25.75
2022-09-02T22:20:33.615Z,27.00
2022-09-02T22:23:16.766Z,23.25
2022-09-02T22:25:46.509Z,26.75
2022-09-02T22:28:36.470Z,22.50
2022-09-02T22:31:09.660Z,24.50
2022-09-02T22:33:44.099Z,25.50
2022-09-02T22:36:26.006Z,25.00
2022-09-02T22:38:59.378Z,23.50
2022-09-02T22:41:32.031Z,25.00
2022-09-02T22:44:01.463Z,23.50
2022-09-02T22:46:52.309Z,26.25
2022-09-02T22:49:49.617Z,26.50
2022-09-02T22:52:50.654Z,22.25
2022-09-02T22:55:40.459Z,22.75
2022-09-02T22:58:13.036Z,24.00
2022-09-02T23:00:49.783Z,23.75
2022-09-02T23:03:23.454Z,28.25
2022-09-02T23:05:56.197Z,29.00
2022-09-02T23:08:26.159Z,24.50
2022-09-02T23:11:00.386Z,26.00
2022-09-02T23:13:44.654Z,28.25
2022-09-02T23:16:31.472Z,26.75
2022-09-02T23:19:20.874Z,22.25
2022-09-02T23:22:20.607Z,24.00
2022-09-02T23:25:02.217Z,24.00
2022-09-02T23:27:52.935Z,22.25
2022-09-02T23:30:22.267Z,26.25
2022-09-02T23:32:52.197Z,24.25
2022-09-02T23:35:25.436Z,28.25
2022-09-02T23:38:02.241Z,23.25
2022-09-02T23:40:44.504Z,23.25
2022-09-02T23:43:16.767Z,24.25
2022-09-02T23:45:47.700Z,20.75
2022-09-02T23:48:39.542Z,23.25
2022-09-02T23:51:14.481Z,27.50
2022-09-02T23:53:56.847Z,29.75
2022-09-02T23:56:43.543Z,25.50
2022-09-02T23:59:31.657Z,25.50
